createdAt,value
2019-05-25T00:00:06.383Z,12.10
2019-05-25T00:02:34.599Z,12.10
2019-05-25T00:05:02.877Z,12.00
2019-05-25T00:07:31.128Z,11.90
2019-05-25T00:09:59.400Z,11.80
2019-05-25T00:12:27.672Z,11.60
2019-05-25T00:14:55.982Z,11.60
2019-05-25T00:17:24.401Z,11.60
2019-05-25T00:19:52.661Z,11.50
2019-05-25T00:22:21.412Z,11.40
2019-05-25T00:24:49.635Z,11.40
2019-05-25T00:27:18.055Z,11.30
2019-05-25T00:29:46.358Z,11.30
2019-05-25T00:32:14.659Z,11.30
2019-05-25T00:34:42.982Z,11.50
2019-05-25T00:37:11.227Z,11.40
2019-05-25T00:39:39.572Z,11.40
2019-05-25T00:42:08.451Z,11.40
2019-05-25T00:44:36.676Z,11.30
2019-05-25T00:47:04.946Z,11.20
2019-05-25T00:49:33.178Z,11.20
2019-05-25T00:52:01.440Z,11.00
2019-05-25T00:54:29.675Z,10.90
2019-05-25T00:56:58.734Z,10.90
2019-05-25T00:59:27.005Z,10.90
2019-05-25T01:01:56.121Z,10.80
2019-05-25T01:04:24.588Z,10.80
2019-05-25T01:06:52.866Z,10.70
2019-05-25T01:09:21.172Z,10.70
2019-05-25T01:11:49.471Z,10.60
2019-05-25T01:14:17.688Z,10.60
2019-05-25T01:16:45.962Z,10.60
2019-05-25T01:19:14.264Z,10.60
2019-05-25T01:21:42.525Z,10.70
2019-05-25T01:24:10.826Z,10.70
2019-05-25T01:26:39.149Z,10.70
2019-05-25T01:29:08.051Z,10.70
2019-05-25T01:31:36.309Z,10.60
2019-05-25T01:34:04.692Z,10.50
2019-05-25T01:36:32.962Z,10.60
2019-05-25T01:39:01.602Z,10.60
2019-05-25T01:41:29.847Z,10.50
2019-05-25T01:43:58.159Z,10.30
2019-05-25T01:46:26.820Z,10.30
2019-05-25T01:48:55.089Z,10.30
2019-05-25T01:51:24.154Z,10.20
2019-05-25T01:53:52.395Z,10.20
2019-05-25T01:56:20.688Z,10.20
2019-05-25T01:58:48.987Z,10.10
2019-05-25T02:01:17.258Z,10.00
2019-05-25T02:03:45.521Z,9.90
2019-05-25T02:06:13.926Z,9.90
2019-05-25T02:08:42.311Z,9.90
2019-05-25T02:11:10.571Z,10.00
2019-05-25T02:13:38.795Z,9.90
2019-05-25T02:16:07.068Z,9.80
2019-05-25T02:18:35.297Z,9.80
2019-05-25T02:21:03.565Z,9.80
2019-05-25T02:23:31.864Z,9.80
2019-05-25T02:26:00.102Z,9.70
2019-05-25T02:28:28.394Z,9.70
2019-05-25T02:30:57.189Z,9.80
2019-05-25T02:33:25.543Z,9.80
2019-05-25T02:35:53.771Z,9.80
2019-05-25T02:38:21.993Z,9.80
2019-05-25T02:40:50.423Z,9.70
2019-05-25T02:43:18.710Z,9.70
2019-05-25T02:45:46.958Z,9.70
2019-05-25T02:48:15.179Z,9.70
2019-05-25T02:50:43.492Z,9.60
2019-05-25T02:53:11.753Z,9.40
2019-05-25T02:55:40.012Z,9.40
2019-05-25T02:58:08.252Z,9.40
2019-05-25T03:00:36.503Z,9.30
2019-05-25T03:03:04.900Z,9.30
2019-05-25T03:05:33.137Z,9.30
2019-05-25T03:08:02.755Z,9.40
2019-05-25T03:10:31.586Z,9.30
2019-05-25T03:13:01.858Z,9.20
2019-05-25T03:15:30.103Z,9.10
2019-05-25T03:17:58.336Z,9.20
2019-05-25T03:20:26.569Z,9.20
2019-05-25T03:22:54.888Z,9.10
2019-05-25T03:25:23.146Z,9.00
2019-05-25T03:27:51.476Z,9.00
2019-05-25T03:30:23.435Z,9.10
2019-05-25T03:32:51.655Z,9.20
2019-05-25T03:35:20.315Z,9.30
2019-05-25T03:37:48.531Z,9.40
2019-05-25T03:40:16.817Z,9.40
2019-05-25T03:42:45.046Z,9.40
2019-05-25T03:45:13.311Z,9.50
2019-05-25T03:47:41.499Z,9.50
2019-05-25T03:50:09.827Z,9.60
2019-05-25T03:52:38.075Z,9.60
2019-05-25T03:55:06.318Z,9.60
2019-05-25T03:57:34.539Z,9.70
2019-05-25T04:00:02.990Z,9.70
2019-05-25T04:02:31.206Z,9.80
2019-05-25T04:04:59.440Z,9.70
2019-05-25T04:07:27.694Z,9.70
2019-05-25T04:09:55.897Z,9.70
2019-05-25T04:12:24.172Z,9.70
2019-05-25T04:14:52.524Z,9.80
2019-05-25T04:17:20.773Z,9.80
2019-05-25T04:19:48.970Z,9.90
2019-05-25T04:22:17.218Z,9.90
2019-05-25T04:24:45.420Z,9.90
2019-05-25T04:27:13.668Z,9.90
2019-05-25T04:29:42.011Z,9.80
2019-05-25T04:32:10.353Z,9.90
2019-05-25T04:34:38.558Z,10.00
2019-05-25T04:37:06.803Z,10.00
2019-05-25T04:39:35.028Z,10.10
2019-05-25T04:42:03.282Z,10.20
2019-05-25T04:44:31.511Z,10.30
2019-05-25T04:46:59.753Z,10.30
2019-05-25T04:49:28.111Z,10.30
2019-05-25T04:51:56.346Z,10.30
2019-05-25T04:54:24.644Z,10.20
2019-05-25T04:56:53.012Z,10.30
2019-05-25T04:59:21.244Z,10.40
2019-05-25T05:01:49.575Z,10.40
2019-05-25T05:04:17.776Z,10.40
2019-05-25T05:06:46.469Z,10.60
2019-05-25T05:09:15.138Z,10.60
2019-05-25T05:11:43.451Z,10.60
2019-05-25T05:14:11.679Z,10.70
2019-05-25T05:16:39.979Z,10.80
2019-05-25T05:19:08.274Z,10.90
2019-05-25T05:21:36.596Z,10.90
2019-05-25T05:24:04.933Z,10.90
2019-05-25T05:26:33.182Z,11.00
2019-05-25T05:29:01.476Z,11.20
2019-05-25T05:31:29.827Z,11.20
2019-05-25T05:33:58.117Z,11.30
2019-05-25T05:36:27.802Z,11.30
2019-05-25T05:38:56.169Z,11.40
2019-05-25T05:41:25.805Z,11.40
2019-05-25T05:43:54.982Z,11.50
2019-05-25T05:46:23.499Z,11.40
2019-05-25T05:48:53.203Z,11.40
2019-05-25T05:51:22.473Z,11.40
2019-05-25T05:53:53.819Z,11.40
2019-05-25T05:56:22.289Z,11.40
2019-05-25T05:58:50.714Z,11.40
2019-05-25T06:01:18.984Z,11.60
2019-05-25T06:03:47.791Z,11.50
2019-05-25T06:06:16.145Z,11.60
2019-05-25T06:08:44.451Z,11.60
2019-05-25T06:11:12.719Z,11.60
2019-05-25T06:13:40.993Z,11.70
2019-05-25T06:16:09.264Z,11.60
2019-05-25T06:18:37.527Z,11.60
2019-05-25T06:21:05.844Z,11.50
2019-05-25T06:23:34.118Z,11.50
2019-05-25T06:26:02.372Z,11.60
2019-05-25T06:28:30.715Z,11.50
2019-05-25T06:30:58.973Z,11.50
2019-05-25T06:33:27.264Z,11.50
2019-05-25T06:35:55.540Z,11.50
2019-05-25T06:38:23.874Z,11.70
2019-05-25T06:40:52.170Z,11.80
2019-05-25T06:43:20.430Z,11.80
2019-05-25T06:45:48.704Z,11.80
2019-05-25T06:48:16.971Z,11.90
2019-05-25T06:50:45.210Z,12.10
2019-05-25T06:53:13.515Z,12.20
2019-05-25T06:55:41.796Z,12.40
2019-05-25T06:58:10.068Z,12.40
2019-05-25T07:00:38.482Z,12.30
2019-05-25T07:03:08.146Z,12.10
2019-05-25T07:05:36.579Z,12.00
2019-05-25T07:08:04.857Z,11.90
2019-05-25T07:10:33.132Z,11.90
2019-05-25T07:13:01.701Z,11.90
2019-05-25T07:15:30.071Z,12.10
2019-05-25T07:17:58.359Z,12.20
2019-05-25T07:20:26.643Z,12.30
2019-05-25T07:22:54.909Z,12.40
2019-05-25T07:25:23.174Z,12.40
2019-05-25T07:27:59.637Z,12.30
2019-05-25T07:30:21.455Z,12.40
2019-05-25T07:32:49.872Z,12.40
2019-05-25T07:35:18.244Z,12.50
2019-05-25T07:37:46.567Z,12.50
2019-05-25T07:40:14.883Z,12.50
2019-05-25T07:42:43.494Z,12.60
2019-05-25T07:45:13.222Z,12.70
2019-05-25T07:47:41.513Z,12.70
2019-05-25T07:50:10.234Z,12.90
2019-05-25T07:52:38.483Z,13.00
2019-05-25T07:55:06.913Z,13.20
2019-05-25T07:57:35.339Z,13.10
2019-05-25T08:00:04.197Z,12.90
2019-05-25T08:02:32.507Z,12.90
2019-05-25T08:05:00.768Z,13.00
2019-05-25T08:07:29.052Z,13.00
2019-05-25T08:09:57.300Z,13.10
2019-05-25T08:12:25.577Z,13.00
2019-05-25T08:14:53.799Z,13.00
2019-05-25T08:17:22.102Z,13.20
2019-05-25T08:19:50.347Z,13.10
2019-05-25T08:22:18.620Z,13.20
2019-05-25T08:24:46.828Z,13.30
2019-05-25T08:27:15.193Z,13.40
2019-05-25T08:29:43.521Z,13.50
2019-05-25T08:32:11.820Z,13.40
2019-05-25T08:34:40.196Z,13.50
2019-05-25T08:37:08.475Z,13.60
2019-05-25T08:39:36.723Z,13.70
2019-05-25T08:42:04.994Z,13.80
2019-05-25T08:44:33.340Z,13.80
2019-05-25T08:47:01.718Z,13.50
2019-05-25T08:49:30.088Z,13.70
2019-05-25T08:51:58.571Z,13.80
2019-05-25T08:54:26.878Z,14.20
2019-05-25T08:56:55.510Z,13.90
2019-05-25T08:59:23.773Z,14.20
2019-05-25T09:01:52.068Z,14.20
2019-05-25T09:04:20.500Z,14.50
2019-05-25T09:06:48.824Z,14.70
2019-05-25T09:09:17.249Z,14.80
2019-05-25T09:11:45.600Z,15.10
2019-05-25T09:14:13.940Z,15.20
2019-05-25T09:16:42.238Z,14.90
2019-05-25T09:19:10.526Z,14.90
2019-05-25T09:21:38.795Z,15.10
2019-05-25T09:24:07.097Z,15.10
2019-05-25T09:26:35.468Z,15.30
2019-05-25T09:29:05.040Z,15.40
2019-05-25T09:31:33.735Z,15.10
2019-05-25T09:34:02.068Z,15.10
2019-05-25T09:36:30.323Z,15.10
2019-05-25T09:38:58.638Z,15.00
2019-05-25T09:41:26.945Z,15.20
2019-05-25T09:43:55.370Z,15.30
2019-05-25T09:46:23.618Z,15.60
2019-05-25T09:48:51.905Z,15.80
2019-05-25T09:51:20.321Z,15.90
2019-05-25T09:53:48.643Z,16.10
2019-05-25T09:56:16.916Z,16.10
2019-05-25T09:58:45.471Z,16.00
2019-05-25T10:01:13.722Z,16.00
2019-05-25T10:03:42.005Z,16.10
2019-05-25T10:06:13.094Z,15.80
2019-05-25T10:08:40.525Z,15.70
2019-05-25T10:11:08.912Z,15.90
2019-05-25T10:13:37.411Z,16.30
2019-05-25T10:16:05.719Z,16.30
2019-05-25T10:18:34.051Z,16.20
2019-05-25T10:21:02.305Z,16.40
2019-05-25T10:23:30.547Z,16.50
2019-05-25T10:25:58.843Z,16.70
2019-05-25T10:28:27.112Z,16.70
2019-05-25T10:30:55.434Z,16.80
2019-05-25T10:33:23.801Z,17.00
2019-05-25T10:35:52.110Z,17.20
2019-05-25T10:38:20.392Z,16.70
2019-05-25T10:40:48.765Z,16.50
2019-05-25T10:43:16.999Z,16.50
2019-05-25T10:45:45.310Z,16.60
2019-05-25T10:48:13.592Z,16.30
2019-05-25T10:50:41.864Z,16.20
2019-05-25T10:53:10.212Z,16.40
2019-05-25T10:55:38.515Z,16.40
2019-05-25T10:58:06.862Z,16.40
2019-05-25T11:00:35.194Z,16.30
2019-05-25T11:03:03.475Z,16.40
2019-05-25T11:05:31.777Z,16.60
2019-05-25T11:08:00.204Z,16.50
2019-05-25T11:10:29.006Z,16.20
2019-05-25T11:12:57.339Z,16.20
2019-05-25T11:15:25.627Z,16.10
2019-05-25T11:17:53.919Z,15.90
2019-05-25T11:20:22.449Z,16.10
2019-05-25T11:22:50.885Z,16.30
2019-05-25T11:25:19.205Z,16.40
2019-05-25T11:27:47.523Z,16.40
2019-05-25T11:30:16.290Z,16.20
2019-05-25T11:32:44.572Z,16.30
2019-05-25T11:35:13.662Z,16.40
2019-05-25T11:37:41.903Z,16.60
2019-05-25T11:40:10.500Z,16.70
2019-05-25T11:42:38.825Z,16.90
2019-05-25T11:45:07.550Z,17.10
2019-05-25T11:47:35.903Z,17.20
2019-05-25T11:50:04.663Z,17.30
2019-05-25T11:52:32.943Z,17.50
2019-05-25T11:55:01.251Z,17.70
2019-05-25T11:57:29.585Z,17.50
2019-05-25T11:59:57.903Z,17.60
2019-05-25T12:02:26.223Z,17.40
2019-05-25T12:04:54.591Z,17.30
2019-05-25T12:07:22.881Z,16.70
2019-05-25T12:09:51.186Z,16.90
2019-05-25T12:12:19.418Z,17.20
2019-05-25T12:14:47.709Z,17.10
2019-05-25T12:17:16.035Z,17.40
2019-05-25T12:19:44.311Z,17.50
2019-05-25T12:22:12.844Z,17.50
2019-05-25T12:24:41.193Z,17.50
2019-05-25T12:27:09.581Z,17.60
2019-05-25T12:29:37.973Z,17.80
2019-05-25T12:32:06.268Z,17.70
2019-05-25T12:34:34.622Z,17.80
2019-05-25T12:37:02.894Z,18.10
2019-05-25T12:39:31.252Z,18.00
2019-05-25T12:41:59.962Z,17.70
2019-05-25T12:44:28.277Z,17.10
2019-05-25T12:46:56.599Z,17.30
2019-05-25T12:49:24.977Z,17.40
2019-05-25T12:51:53.279Z,17.50
2019-05-25T12:54:21.776Z,17.60
2019-05-25T12:56:50.017Z,17.40
2019-05-25T12:59:18.395Z,17.30
2019-05-25T13:01:47.038Z,17.00
2019-05-25T13:04:15.445Z,17.10
2019-05-25T13:06:43.810Z,17.00
2019-05-25T13:09:12.139Z,17.20
2019-05-25T13:11:40.406Z,17.40
2019-05-25T13:14:14.479Z,17.40
2019-05-25T13:16:38.771Z,17.50
2019-05-25T13:19:07.151Z,17.50
2019-05-25T13:21:35.438Z,17.80
2019-05-25T13:24:03.726Z,17.90
2019-05-25T13:26:32.114Z,18.00
2019-05-25T13:29:00.405Z,17.90
2019-05-25T13:31:28.660Z,18.00
2019-05-25T13:33:56.969Z,18.00
2019-05-25T13:36:25.313Z,18.00
2019-05-25T13:38:53.719Z,17.70
2019-05-25T13:41:22.004Z,17.40
2019-05-25T13:43:50.371Z,17.60
2019-05-25T13:46:18.674Z,17.50
2019-05-25T13:48:46.954Z,17.30
2019-05-25T13:51:15.381Z,17.50
2019-05-25T13:53:43.728Z,17.90
2019-05-25T13:56:12.000Z,18.00
2019-05-25T13:58:40.266Z,17.90
2019-05-25T14:01:08.653Z,17.90
2019-05-25T14:03:36.888Z,17.90
2019-05-25T14:06:05.334Z,17.70
2019-05-25T14:08:33.659Z,17.90
2019-05-25T14:11:02.049Z,18.10
2019-05-25T14:13:30.346Z,17.70
2019-05-25T14:16:07.058Z,17.90
2019-05-25T14:18:28.804Z,18.00
2019-05-25T14:20:57.223Z,18.30
2019-05-25T14:23:25.673Z,18.20
2019-05-25T14:25:53.984Z,18.40
2019-05-25T14:28:22.303Z,18.60
2019-05-25T14:30:50.562Z,19.00
2019-05-25T14:33:18.843Z,19.10
2019-05-25T14:35:47.190Z,18.80
2019-05-25T14:38:15.512Z,18.70
2019-05-25T14:40:43.820Z,18.60
2019-05-25T14:43:12.238Z,18.70
2019-05-25T14:45:40.570Z,19.10
2019-05-25T14:48:08.968Z,19.10
2019-05-25T14:50:37.255Z,19.30
2019-05-25T14:53:05.567Z,19.50
2019-05-25T14:55:33.906Z,19.50
2019-05-25T14:58:02.194Z,19.60
2019-05-25T15:00:30.574Z,19.20
2019-05-25T15:02:58.968Z,18.90
2019-05-25T15:05:27.659Z,18.70
2019-05-25T15:07:55.985Z,18.80
2019-05-25T15:10:24.333Z,18.80
2019-05-25T15:12:52.638Z,18.50
2019-05-25T15:15:20.966Z,18.20
2019-05-25T15:17:49.287Z,18.30
2019-05-25T15:20:18.844Z,18.20
2019-05-25T15:22:48.417Z,18.20
2019-05-25T15:25:16.787Z,18.40
2019-05-25T15:27:45.082Z,18.30
2019-05-25T15:30:13.880Z,18.50
2019-05-25T15:32:42.159Z,18.70
2019-05-25T15:35:10.567Z,18.60
2019-05-25T15:37:38.926Z,18.60
2019-05-25T15:40:07.999Z,18.60
2019-05-25T15:42:36.379Z,18.40
2019-05-25T15:45:05.120Z,18.50
2019-05-25T15:47:33.415Z,18.50
2019-05-25T15:50:01.670Z,18.50
2019-05-25T15:52:30.012Z,18.50
2019-05-25T15:54:58.288Z,18.10
2019-05-25T15:57:26.632Z,18.10
2019-05-25T15:59:54.896Z,18.20
2019-05-25T16:02:36.325Z,18.20
2019-05-25T16:04:53.328Z,18.30
2019-05-25T16:07:21.632Z,18.30
2019-05-25T16:09:50.052Z,18.00
2019-05-25T16:12:18.400Z,18.00
2019-05-25T16:14:46.780Z,18.10
2019-05-25T16:17:15.109Z,18.10
2019-05-25T16:19:43.491Z,18.00
2019-05-25T16:22:11.861Z,18.20
2019-05-25T16:24:40.289Z,18.40
2019-05-25T16:27:08.653Z,18.20
2019-05-25T16:29:37.039Z,18.30
2019-05-25T16:32:05.442Z,18.40
2019-05-25T16:34:33.865Z,18.40
2019-05-25T16:37:02.428Z,18.30
2019-05-25T16:39:31.037Z,18.40
2019-05-25T16:41:59.443Z,18.60
2019-05-25T16:44:27.856Z,18.50
2019-05-25T16:46:56.101Z,18.50
2019-05-25T16:49:24.456Z,18.40
2019-05-25T16:51:52.837Z,18.40
2019-05-25T16:54:21.271Z,18.20
2019-05-25T16:56:49.620Z,18.10
2019-05-25T16:59:18.156Z,18.40
2019-05-25T17:01:48.605Z,18.60
2019-05-25T17:04:16.723Z,18.60
2019-05-25T17:06:45.146Z,18.60
2019-05-25T17:09:13.486Z,18.60
2019-05-25T17:11:43.838Z,18.60
2019-05-25T17:14:12.199Z,18.60
2019-05-25T17:16:40.462Z,18.60
2019-05-25T17:19:09.147Z,18.70
2019-05-25T17:21:37.536Z,18.70
2019-05-25T17:24:06.274Z,18.70
2019-05-25T17:26:34.669Z,18.60
2019-05-25T17:29:02.994Z,18.70
2019-05-25T17:31:31.403Z,18.80
2019-05-25T17:33:59.721Z,18.60
2019-05-25T17:36:28.137Z,18.50
2019-05-25T17:38:56.567Z,18.50
2019-05-25T17:41:25.099Z,18.50
2019-05-25T17:43:54.440Z,18.40
2019-05-25T17:46:22.754Z,18.50
2019-05-25T17:48:52.690Z,18.40
2019-05-25T17:51:22.038Z,18.20
2019-05-25T17:53:50.437Z,18.10
2019-05-25T17:56:18.906Z,18.10
2019-05-25T17:58:47.681Z,18.00
2019-05-25T18:01:16.113Z,18.00
2019-05-25T18:04:02.524Z,18.00
2019-05-25T18:06:15.731Z,18.10
2019-05-25T18:08:44.099Z,18.00
2019-05-25T18:11:12.510Z,17.90
2019-05-25T18:13:41.018Z,17.80
2019-05-25T18:16:09.561Z,17.70
2019-05-25T18:18:37.940Z,17.70
2019-05-25T18:21:06.359Z,17.60
2019-05-25T18:23:34.857Z,17.60
2019-05-25T18:26:03.285Z,17.50
2019-05-25T18:28:31.809Z,17.50
2019-05-25T18:31:00.441Z,17.40
2019-05-25T18:33:28.935Z,17.30
2019-05-25T18:35:57.603Z,17.10
2019-05-25T18:38:26.265Z,17.10
2019-05-25T18:40:54.598Z,17.00
2019-05-25T18:43:22.998Z,16.90
2019-05-25T18:45:54.704Z,16.90
2019-05-25T18:48:25.891Z,16.80
2019-05-25T18:50:54.272Z,16.70
2019-05-25T18:53:22.746Z,16.60
2019-05-25T18:55:51.210Z,16.50
2019-05-25T18:58:19.588Z,16.40
2019-05-25T19:00:48.272Z,16.30
2019-05-25T19:03:16.719Z,16.10
2019-05-25T19:05:45.439Z,16.00
2019-05-25T19:08:13.836Z,15.90
2019-05-25T19:10:42.157Z,15.80
2019-05-25T19:13:10.612Z,15.80
2019-05-25T19:15:39.016Z,15.80
2019-05-25T19:18:07.649Z,15.80
2019-05-25T19:20:36.071Z,15.70
2019-05-25T19:23:04.878Z,15.60
2019-05-25T19:25:33.265Z,15.40
2019-05-25T19:28:01.755Z,15.30
2019-05-25T19:30:30.289Z,15.20
2019-05-25T19:32:58.839Z,15.20
2019-05-25T19:35:27.268Z,15.10
2019-05-25T19:37:55.612Z,15.00
2019-05-25T19:40:23.992Z,14.90
2019-05-25T19:42:57.955Z,14.80
2019-05-25T19:45:26.469Z,14.60
2019-05-25T19:47:55.221Z,14.40
2019-05-25T19:50:23.915Z,14.30
2019-05-25T19:52:54.468Z,14.20
2019-05-25T19:55:23.103Z,14.10
2019-05-25T19:57:55.537Z,14.00
2019-05-25T20:00:24.063Z,13.90
2019-05-25T20:02:52.507Z,13.90
2019-05-25T20:05:20.931Z,13.80
2019-05-25T20:07:50.228Z,13.60
2019-05-25T20:10:18.971Z,13.50
2019-05-25T20:12:47.430Z,13.50
2019-05-25T20:15:16.043Z,13.50
2019-05-25T20:17:44.459Z,13.40
2019-05-25T20:20:14.232Z,13.30
2019-05-25T20:22:42.603Z,13.10
2019-05-25T20:25:11.066Z,13.10
2019-05-25T20:27:39.556Z,13.00
2019-05-25T20:30:08.523Z,13.00
2019-05-25T20:32:37.069Z,13.00
2019-05-25T20:35:05.498Z,12.90
2019-05-25T20:37:33.909Z,12.80
2019-05-25T20:40:02.813Z,12.70
2019-05-25T20:42:31.592Z,12.60
2019-05-25T20:44:59.977Z,12.60
2019-05-25T20:47:28.381Z,12.50
2019-05-25T20:49:56.780Z,12.50
2019-05-25T20:52:25.288Z,12.40
2019-05-25T20:54:53.804Z,12.30
2019-05-25T20:57:22.162Z,12.30
2019-05-25T20:59:50.588Z,12.30
2019-05-25T21:02:19.100Z,12.20
2019-05-25T21:04:47.498Z,12.20
2019-05-25T21:07:15.802Z,12.10
2019-05-25T21:09:44.295Z,12.00
2019-05-25T21:12:12.703Z,11.90
2019-05-25T21:14:41.573Z,11.90
2019-05-25T21:17:10.884Z,11.80
2019-05-25T21:19:39.273Z,11.70
2019-05-25T21:22:07.976Z,11.70
2019-05-25T21:24:36.410Z,11.60
2019-05-25T21:27:04.797Z,11.50
2019-05-25T21:29:33.143Z,11.60
2019-05-25T21:32:01.588Z,11.50
2019-05-25T21:34:29.958Z,11.40
2019-05-25T21:36:58.368Z,11.40
2019-05-25T21:39:26.749Z,11.30
2019-05-25T21:41:55.210Z,11.30
2019-05-25T21:44:23.825Z,11.20
2019-05-25T21:46:52.579Z,11.20
2019-05-25T21:49:21.041Z,11.10
2019-05-25T21:51:49.684Z,11.10
2019-05-25T21:54:18.049Z,11.10
2019-05-25T21:56:46.487Z,11.10
2019-05-25T21:59:15.330Z,11.00
2019-05-25T22:01:43.757Z,11.00
2019-05-25T22:04:12.208Z,10.90
2019-05-25T22:06:40.553Z,10.90
2019-05-25T22:09:09.200Z,10.90
2019-05-25T22:11:37.648Z,10.80
2019-05-25T22:14:06.040Z,10.80
2019-05-25T22:16:34.497Z,10.80
2019-05-25T22:19:05.125Z,10.70
2019-05-25T22:21:33.457Z,10.70
2019-05-25T22:24:01.879Z,10.60
2019-05-25T22:26:30.261Z,10.60
2019-05-25T22:28:58.696Z,10.60
2019-05-25T22:31:27.132Z,10.60
2019-05-25T22:33:59.115Z,10.60
2019-05-25T22:36:39.166Z,10.50
2019-05-25T22:38:56.131Z,10.50
2019-05-25T22:41:24.410Z,10.50
2019-05-25T22:43:52.703Z,10.50
2019-05-25T22:46:20.978Z,10.50
2019-05-25T22:48:50.466Z,10.40
2019-05-25T22:51:18.793Z,10.30
2019-05-25T22:53:47.111Z,10.30
2019-05-25T22:56:15.532Z,10.30
2019-05-25T22:58:44.399Z,10.20
2019-05-25T23:01:12.680Z,10.10
2019-05-25T23:03:41.067Z,10.10
2019-05-25T23:06:09.323Z,10.10
2019-05-25T23:08:45.151Z,10.10
2019-05-25T23:11:13.440Z,10.10
2019-05-25T23:13:41.792Z,10.10
2019-05-25T23:16:13.775Z,10.10
2019-05-25T23:18:42.071Z,10.20
2019-05-25T23:21:10.412Z,10.10
2019-05-25T23:23:38.744Z,10.00
2019-05-25T23:26:07.269Z,10.00
2019-05-25T23:28:35.619Z,9.90
2019-05-25T23:31:03.884Z,9.80
2019-05-25T23:33:32.213Z,9.80
2019-05-25T23:36:00.508Z,9.80
2019-05-25T23:38:28.774Z,9.80
2019-05-25T23:40:57.039Z,9.70
2019-05-25T23:43:25.363Z,9.70
2019-05-25T23:45:53.744Z,9.70
2019-05-25T23:48:21.959Z,9.60
2019-05-25T23:50:50.192Z,9.60
2019-05-25T23:53:18.476Z,9.50
2019-05-25T23:55:46.878Z,9.60
2019-05-25T23:58:15.332Z,9.60
